createdAt,value
2019-02-07T00:00:10.595Z,100667.61
2019-02-07T00:02:37.425Z,100662.23
2019-02-07T00:05:04.601Z,100664.80
2019-02-07T00:07:31.447Z,100659.16
2019-02-07T00:09:58.294Z,100659.70
2019-02-07T00:12:25.149Z,100661.24
2019-02-07T00:14:52.197Z,100657.40
2019-02-07T00:17:19.022Z,100651.16
2019-02-07T00:19:45.905Z,100654.39
2019-02-07T00:22:12.735Z,100644.24
2019-02-07T00:24:42.930Z,100640.89
2019-02-07T00:27:06.452Z,100639.55
2019-02-07T00:29:33.258Z,100638.97
2019-02-07T00:32:00.085Z,100638.55
2019-02-07T00:34:26.933Z,100631.08
2019-02-07T00:36:53.749Z,100619.84
2019-02-07T00:39:20.592Z,100627.13
2019-02-07T00:41:47.466Z,100620.75
2019-02-07T00:44:14.326Z,100622.12
2019-02-07T00:46:41.158Z,100615.40
2019-02-07T00:49:08.014Z,100618.00
2019-02-07T00:51:34.841Z,100619.81
2019-02-07T00:54:01.689Z,100619.75
2019-02-07T00:56:28.506Z,100609.34
2019-02-07T00:58:55.349Z,100612.98
2019-02-07T01:01:22.204Z,100603.84
2019-02-07T01:03:49.022Z,100601.55
2019-02-07T01:06:15.879Z,100595.48
2019-02-07T01:08:42.749Z,100597.63
2019-02-07T01:11:09.602Z,100590.78
2019-02-07T01:13:36.450Z,100579.11
2019-02-07T01:16:03.314Z,100573.17
2019-02-07T01:18:30.139Z,100566.08
2019-02-07T01:20:56.998Z,100564.94
2019-02-07T01:23:23.825Z,100564.67
2019-02-07T01:25:50.718Z,100564.23
2019-02-07T01:28:17.558Z,100555.28
2019-02-07T01:30:44.402Z,100558.20
2019-02-07T01:33:11.232Z,100553.34
2019-02-07T01:35:38.074Z,100555.98
2019-02-07T01:38:04.898Z,100547.06
2019-02-07T01:40:31.746Z,100545.41
2019-02-07T01:42:58.586Z,100543.23
2019-02-07T01:45:25.424Z,100543.77
2019-02-07T01:47:52.250Z,100539.28
2019-02-07T01:50:20.251Z,100541.52
2019-02-07T01:52:47.070Z,100534.56
2019-02-07T01:55:13.922Z,100539.98
2019-02-07T01:57:40.754Z,100543.09
2019-02-07T02:00:10.743Z,100544.15
2019-02-07T02:02:37.622Z,100541.48
2019-02-07T02:05:05.073Z,100533.00
2019-02-07T02:07:31.907Z,100539.93
2019-02-07T02:09:58.739Z,100537.00
2019-02-07T02:12:25.622Z,100525.33
2019-02-07T02:14:52.626Z,100520.35
2019-02-07T02:17:19.529Z,100518.09
2019-02-07T02:19:46.299Z,100518.78
2019-02-07T02:22:13.150Z,100511.55
2019-02-07T02:24:39.969Z,100493.68
2019-02-07T02:27:06.818Z,100489.84
2019-02-07T02:29:33.654Z,100483.69
2019-02-07T02:32:00.521Z,100484.14
2019-02-07T02:34:27.349Z,100480.10
2019-02-07T02:36:54.193Z,100477.66
2019-02-07T02:39:21.009Z,100465.95
2019-02-07T02:41:47.875Z,100466.36
2019-02-07T02:44:14.694Z,100469.73
2019-02-07T02:46:41.742Z,100468.73
2019-02-07T02:49:08.568Z,100468.75
2019-02-07T02:51:35.405Z,100462.43
2019-02-07T02:54:02.229Z,100470.42
2019-02-07T02:56:29.075Z,100472.13
2019-02-07T02:58:55.917Z,100456.77
2019-02-07T03:01:35.153Z,100462.27
2019-02-07T03:04:09.537Z,100454.05
2019-02-07T03:06:51.721Z,100454.23
2019-02-07T03:09:38.913Z,100463.89
2019-02-07T03:12:19.218Z,100442.95
2019-02-07T03:15:02.338Z,100435.26
2019-02-07T03:17:50.757Z,100406.98
2019-02-07T03:20:23.350Z,100422.64
2019-02-07T03:22:56.040Z,100416.52
2019-02-07T03:25:42.462Z,100423.27
2019-02-07T03:28:30.703Z,100424.46
2019-02-07T03:31:17.143Z,100422.72
2019-02-07T03:34:04.706Z,100415.30
2019-02-07T03:36:42.053Z,100416.42
2019-02-07T03:39:19.681Z,100410.05
2019-02-07T03:41:59.371Z,100407.42
2019-02-07T03:44:47.720Z,100402.52
2019-02-07T03:47:22.141Z,100402.05
2019-02-07T03:49:59.082Z,100395.56
2019-02-07T03:52:34.164Z,100392.98
2019-02-07T03:55:10.061Z,100387.80
2019-02-07T03:57:42.662Z,100383.02
2019-02-07T04:00:19.111Z,100381.61
2019-02-07T04:02:51.802Z,100383.73
2019-02-07T04:05:30.141Z,100376.42
2019-02-07T04:08:08.518Z,100366.99
2019-02-07T04:10:45.110Z,100375.33
2019-02-07T04:13:17.882Z,100374.30
2019-02-07T04:15:58.465Z,100374.09
2019-02-07T04:18:47.293Z,100369.77
2019-02-07T04:21:30.751Z,100366.11
2019-02-07T04:24:08.218Z,100364.80
2019-02-07T04:26:47.865Z,100363.31
2019-02-07T04:29:40.323Z,100360.18
2019-02-07T04:32:19.896Z,100360.75
2019-02-07T04:35:02.479Z,100363.34
2019-02-07T04:37:54.893Z,100367.98
2019-02-07T04:40:42.092Z,100371.42
2019-02-07T04:43:30.450Z,100373.05
2019-02-07T04:46:03.099Z,100357.88
2019-02-07T04:48:51.511Z,100363.34
2019-02-07T04:51:24.123Z,100359.81
2019-02-07T04:54:03.622Z,100357.67
2019-02-07T04:56:55.868Z,100361.70
2019-02-07T04:59:37.866Z,100362.52
2019-02-07T05:02:21.738Z,100354.48
2019-02-07T05:04:54.386Z,100358.14
2019-02-07T05:07:26.914Z,100354.22
2019-02-07T05:09:59.517Z,100362.69
2019-02-07T05:12:32.170Z,100365.97
2019-02-07T05:15:10.650Z,100375.19
2019-02-07T05:17:51.719Z,100370.94
2019-02-07T05:20:31.257Z,100357.88
2019-02-07T05:23:18.763Z,100350.70
2019-02-07T05:25:51.306Z,100345.06
2019-02-07T05:28:31.904Z,100344.91
2019-02-07T05:31:18.414Z,100345.61
2019-02-07T05:34:05.852Z,100334.02
2019-02-07T05:36:42.486Z,100343.07
2019-02-07T05:39:22.899Z,100343.13
2019-02-07T05:42:11.218Z,100335.57
2019-02-07T05:44:57.705Z,100323.50
2019-02-07T05:47:30.437Z,100315.70
2019-02-07T05:50:14.475Z,100315.45
2019-02-07T05:52:47.277Z,100331.70
2019-02-07T05:55:27.774Z,100323.64
2019-02-07T05:58:00.418Z,100324.39
2019-02-07T06:00:48.790Z,100326.20
2019-02-07T06:03:21.278Z,100325.63
2019-02-07T06:06:02.385Z,100330.30
2019-02-07T06:08:34.994Z,100326.08
2019-02-07T06:11:14.074Z,100315.65
2019-02-07T06:13:52.724Z,100311.30
2019-02-07T06:16:32.725Z,100310.12
2019-02-07T06:19:05.182Z,100318.08
2019-02-07T06:21:48.462Z,100316.50
2019-02-07T06:24:26.058Z,100317.08
2019-02-07T06:27:12.542Z,100312.28
2019-02-07T06:29:50.170Z,100301.92
2019-02-07T06:32:41.518Z,100298.95
2019-02-07T06:35:17.729Z,100294.87
2019-02-07T06:38:05.154Z,100291.45
2019-02-07T06:40:37.702Z,100284.85
2019-02-07T06:43:25.079Z,100286.50
2019-02-07T06:46:13.527Z,100282.80
2019-02-07T06:49:01.601Z,100286.06
2019-02-07T06:51:39.858Z,100273.83
2019-02-07T06:54:26.305Z,100279.28
2019-02-07T06:57:13.815Z,100265.50
2019-02-07T06:59:51.949Z,100266.17
2019-02-07T07:02:24.514Z,100262.34
2019-02-07T07:05:02.222Z,100263.03
2019-02-07T07:07:43.246Z,100258.36
2019-02-07T07:10:31.673Z,100248.33
2019-02-07T07:13:10.697Z,100252.27
2019-02-07T07:15:45.078Z,100246.52
2019-02-07T07:18:31.522Z,100244.31
2019-02-07T07:21:03.938Z,100244.95
2019-02-07T07:23:36.590Z,100241.63
2019-02-07T07:26:23.018Z,100235.38
2019-02-07T07:29:09.703Z,100235.42
2019-02-07T07:31:54.974Z,100245.81
2019-02-07T07:34:41.460Z,100233.86
2019-02-07T07:37:20.420Z,100233.50
2019-02-07T07:39:58.181Z,100240.46
2019-02-07T07:42:39.641Z,100245.57
2019-02-07T07:45:23.899Z,100229.88
2019-02-07T07:48:11.162Z,100218.57
2019-02-07T07:50:43.625Z,100220.86
2019-02-07T07:53:30.908Z,100225.89
2019-02-07T07:56:20.142Z,100224.97
2019-02-07T07:59:00.402Z,100225.91
2019-02-07T08:01:46.873Z,100227.42
2019-02-07T08:04:28.730Z,100228.45
2019-02-07T08:07:04.285Z,100230.47
2019-02-07T08:09:52.594Z,100221.41
2019-02-07T08:12:31.994Z,100223.58
2019-02-07T08:15:18.422Z,100210.26
2019-02-07T08:18:04.887Z,100206.77
2019-02-07T08:20:53.098Z,100204.50
2019-02-07T08:23:28.844Z,100215.52
2019-02-07T08:26:01.438Z,100217.35
2019-02-07T08:28:43.431Z,100202.48
2019-02-07T08:31:31.650Z,100217.16
2019-02-07T08:34:19.910Z,100224.34
2019-02-07T08:36:52.501Z,100216.31
2019-02-07T08:39:38.954Z,100223.29
2019-02-07T08:42:11.553Z,100219.14
2019-02-07T08:44:44.124Z,100207.13
2019-02-07T08:47:28.234Z,100210.59
2019-02-07T08:50:00.899Z,100206.14
2019-02-07T08:52:46.833Z,100207.29
2019-02-07T08:55:17.282Z,100205.75
2019-02-07T08:57:49.902Z,100201.23
2019-02-07T09:00:25.296Z,100203.55
2019-02-07T09:02:57.762Z,100194.36
2019-02-07T09:05:46.071Z,100198.09
2019-02-07T09:08:26.494Z,100193.48
2019-02-07T09:11:14.758Z,100200.77
2019-02-07T09:13:55.309Z,100198.50
2019-02-07T09:16:43.678Z,100195.01
2019-02-07T09:19:32.026Z,100200.31
2019-02-07T09:22:15.672Z,100198.61
2019-02-07T09:24:57.943Z,100190.73
2019-02-07T09:27:40.182Z,100198.08
2019-02-07T09:30:15.565Z,100208.54
2019-02-07T09:32:58.282Z,100202.14
2019-02-07T09:35:41.511Z,100210.03
2019-02-07T09:38:13.994Z,100206.43
2019-02-07T09:41:00.404Z,100211.41
2019-02-07T09:43:48.762Z,100210.22
2019-02-07T09:46:30.878Z,100211.06
2019-02-07T09:49:10.215Z,100202.58
2019-02-07T09:51:47.798Z,100201.44
2019-02-07T09:54:20.249Z,100217.09
2019-02-07T09:56:57.917Z,100218.45
2019-02-07T09:59:30.390Z,100221.48
2019-02-07T10:02:19.821Z,100225.52
2019-02-07T10:04:54.246Z,100225.81
2019-02-07T10:07:43.518Z,100230.66
2019-02-07T10:10:26.380Z,100230.20
2019-02-07T10:12:58.918Z,100217.89
2019-02-07T10:15:31.599Z,100216.89
2019-02-07T10:18:04.226Z,100201.03
2019-02-07T10:20:45.744Z,100188.66
2019-02-07T10:23:22.942Z,100197.22
2019-02-07T10:26:10.274Z,100194.66
2019-02-07T10:28:56.717Z,100191.05
2019-02-07T10:31:29.255Z,100177.39
2019-02-07T10:34:06.762Z,100168.42
2019-02-07T10:36:42.262Z,100172.95
2019-02-07T10:39:26.507Z,100181.50
2019-02-07T10:42:14.878Z,100179.78
2019-02-07T10:44:47.499Z,100171.41
2019-02-07T10:47:26.775Z,100173.59
2019-02-07T10:49:59.705Z,100182.90
2019-02-07T10:52:40.139Z,100175.34
2019-02-07T10:55:27.675Z,100187.82
2019-02-07T10:58:14.949Z,100183.67
2019-02-07T11:00:53.294Z,100184.48
2019-02-07T11:03:25.837Z,100181.05
2019-02-07T11:06:06.109Z,100171.95
2019-02-07T11:08:55.381Z,100168.31
2019-02-07T11:11:29.598Z,100179.19
2019-02-07T11:14:13.090Z,100181.11
2019-02-07T11:16:51.967Z,100181.93
2019-02-07T11:19:38.389Z,100170.38
2019-02-07T11:22:22.950Z,100173.03
2019-02-07T11:25:05.966Z,100163.41
2019-02-07T11:27:43.274Z,100165.50
2019-02-07T11:30:35.658Z,100178.57
2019-02-07T11:33:12.241Z,100159.69
2019-02-07T11:35:58.694Z,100159.14
2019-02-07T11:38:40.341Z,100160.91
2019-02-07T11:41:28.842Z,100155.91
2019-02-07T11:44:15.294Z,100168.61
2019-02-07T11:46:50.843Z,100158.34
2019-02-07T11:49:27.579Z,100158.89
2019-02-07T11:52:05.403Z,100154.03
2019-02-07T11:54:52.823Z,100150.30
2019-02-07T11:57:36.167Z,100157.31
2019-02-07T12:00:23.474Z,100162.67
2019-02-07T12:02:56.414Z,100161.84
2019-02-07T12:05:39.269Z,100147.53
2019-02-07T12:08:20.392Z,100135.59
2019-02-07T12:10:59.545Z,100144.34
2019-02-07T12:13:48.949Z,100142.17
2019-02-07T12:16:27.903Z,100131.81
2019-02-07T12:19:00.286Z,100132.53
2019-02-07T12:21:35.148Z,100133.39
2019-02-07T12:24:16.238Z,100126.20
2019-02-07T12:26:57.866Z,100128.74
2019-02-07T12:29:30.474Z,100121.03
2019-02-07T12:32:17.706Z,100117.08
2019-02-07T12:35:00.949Z,100126.44
2019-02-07T12:37:36.842Z,100112.07
2019-02-07T12:40:10.140Z,100108.48
2019-02-07T12:42:42.703Z,100104.38
2019-02-07T12:45:19.279Z,100107.15
2019-02-07T12:47:51.781Z,100106.68
2019-02-07T12:50:31.018Z,100109.36
2019-02-07T12:53:13.626Z,100107.75
2019-02-07T12:55:52.337Z,100104.58
2019-02-07T12:58:28.683Z,100104.62
2019-02-07T13:01:16.958Z,100111.75
2019-02-07T13:03:49.398Z,100124.13
2019-02-07T13:06:37.737Z,100131.89
2019-02-07T13:09:14.142Z,100130.42
2019-02-07T13:11:53.720Z,100137.70
2019-02-07T13:14:28.945Z,100133.39
2019-02-07T13:17:05.078Z,100122.59
2019-02-07T13:19:40.568Z,100134.67
2019-02-07T13:22:25.958Z,100123.70
2019-02-07T13:25:10.149Z,100122.37
2019-02-07T13:27:42.594Z,100128.09
2019-02-07T13:30:30.523Z,100131.27
2019-02-07T13:33:14.049Z,100143.31
2019-02-07T13:35:46.443Z,100153.35
2019-02-07T13:38:25.870Z,100145.42
2019-02-07T13:41:10.743Z,100148.35
2019-02-07T13:43:57.197Z,100150.95
2019-02-07T13:46:44.402Z,100136.86
2019-02-07T13:49:28.821Z,100132.66
2019-02-07T13:52:01.263Z,100125.70
2019-02-07T13:54:35.526Z,100132.28
2019-02-07T13:57:08.142Z,100132.20
2019-02-07T13:59:48.969Z,100122.27
2019-02-07T14:02:28.375Z,100133.95
2019-02-07T14:05:08.949Z,100149.45
2019-02-07T14:07:44.827Z,100141.66
2019-02-07T14:10:19.526Z,100149.81
2019-02-07T14:12:56.314Z,100147.41
2019-02-07T14:15:37.682Z,100145.70
2019-02-07T14:18:16.781Z,100162.87
2019-02-07T14:21:08.962Z,100165.60
2019-02-07T14:23:49.827Z,100163.69
2019-02-07T14:26:37.310Z,100167.31
2019-02-07T14:29:16.099Z,100166.95
2019-02-07T14:32:05.446Z,100181.52
2019-02-07T14:34:38.014Z,100182.05
2019-02-07T14:37:13.958Z,100180.52
2019-02-07T14:39:54.060Z,100173.98
2019-02-07T14:42:31.302Z,100177.57
2019-02-07T14:45:04.119Z,100173.59
2019-02-07T14:47:31.025Z,100180.86
2019-02-07T14:49:57.918Z,100171.38
2019-02-07T14:52:24.741Z,100176.04
2019-02-07T14:54:51.685Z,100170.31
2019-02-07T14:57:18.549Z,100164.21
2019-02-07T14:59:45.395Z,100171.41
2019-02-07T15:02:12.230Z,100175.28
2019-02-07T15:04:39.095Z,100172.23
2019-02-07T15:07:05.974Z,100191.58
2019-02-07T15:09:32.828Z,100193.44
2019-02-07T15:11:59.671Z,100195.22
2019-02-07T15:14:26.526Z,100208.11
2019-02-07T15:16:53.366Z,100199.31
2019-02-07T15:19:20.226Z,100198.48
2019-02-07T15:21:47.223Z,100194.33
2019-02-07T15:24:14.137Z,100202.48
2019-02-07T15:26:40.974Z,100208.80
2019-02-07T15:29:07.844Z,100206.03
2019-02-07T15:31:34.687Z,100204.53
2019-02-07T15:34:01.558Z,100200.47
2019-02-07T15:36:28.434Z,100194.39
2019-02-07T15:38:55.303Z,100186.89
2019-02-07T15:41:22.178Z,100187.46
2019-02-07T15:43:49.191Z,100190.22
2019-02-07T15:46:16.063Z,100193.52
2019-02-07T15:48:42.902Z,100192.67
2019-02-07T15:51:09.750Z,100195.31
2019-02-07T15:53:36.599Z,100197.19
2019-02-07T15:56:03.463Z,100206.08
2019-02-07T15:58:35.952Z,100205.80
2019-02-07T16:01:08.507Z,100204.14
2019-02-07T16:03:39.860Z,100206.44
2019-02-07T16:06:06.717Z,100211.77
2019-02-07T16:08:33.542Z,100205.46
2019-02-07T16:11:00.386Z,100212.36
2019-02-07T16:13:27.237Z,100214.02
2019-02-07T16:15:54.094Z,100218.10
2019-02-07T16:18:20.930Z,100211.30
2019-02-07T16:20:49.192Z,100214.13
2019-02-07T16:23:14.686Z,100204.75
2019-02-07T16:25:41.570Z,100205.11
2019-02-07T16:28:08.490Z,100212.48
2019-02-07T16:30:35.326Z,100207.95
2019-02-07T16:33:02.167Z,100220.66
2019-02-07T16:35:29.015Z,100218.03
2019-02-07T16:37:55.849Z,100222.23
2019-02-07T16:40:22.703Z,100223.87
2019-02-07T16:42:49.674Z,100223.19
2019-02-07T16:45:16.521Z,100222.88
2019-02-07T16:47:43.351Z,100225.08
2019-02-07T16:50:12.137Z,100220.45
2019-02-07T16:52:38.969Z,100227.32
2019-02-07T16:55:07.421Z,100226.55
2019-02-07T16:57:34.264Z,100233.43
2019-02-07T17:00:01.118Z,100234.53
2019-02-07T17:02:27.966Z,100239.07
2019-02-07T17:04:54.818Z,100243.06
2019-02-07T17:07:21.666Z,100251.36
2019-02-07T17:09:48.579Z,100257.94
2019-02-07T17:12:15.497Z,100255.60
2019-02-07T17:14:42.350Z,100257.82
2019-02-07T17:17:09.218Z,100268.74
2019-02-07T17:19:36.049Z,100264.31
2019-02-07T17:22:02.966Z,100267.68
2019-02-07T17:24:29.766Z,100263.96
2019-02-07T17:26:56.614Z,100273.61
2019-02-07T17:29:23.450Z,100281.55
2019-02-07T17:31:50.302Z,100279.52
2019-02-07T17:34:17.250Z,100280.58
2019-02-07T17:36:44.174Z,100278.80
2019-02-07T17:39:11.009Z,100283.58
2019-02-07T17:41:37.874Z,100279.60
2019-02-07T17:44:04.726Z,100278.75
2019-02-07T17:46:31.566Z,100274.81
2019-02-07T17:48:58.389Z,100281.20
2019-02-07T17:51:25.255Z,100285.70
2019-02-07T17:53:52.138Z,100296.19
2019-02-07T17:56:18.982Z,100302.53
2019-02-07T17:58:45.839Z,100300.08
2019-02-07T18:01:12.697Z,100303.45
2019-02-07T18:03:39.542Z,100311.83
2019-02-07T18:06:07.510Z,100308.64
2019-02-07T18:08:34.362Z,100314.23
2019-02-07T18:11:01.278Z,100311.41
2019-02-07T18:13:28.118Z,100316.48
2019-02-07T18:15:57.448Z,100312.62
2019-02-07T18:18:21.882Z,100317.73
2019-02-07T18:20:48.873Z,100315.23
2019-02-07T18:23:15.736Z,100314.87
2019-02-07T18:25:42.586Z,100316.16
2019-02-07T18:28:09.410Z,100312.34
2019-02-07T18:30:36.262Z,100315.43
2019-02-07T18:33:03.116Z,100322.24
2019-02-07T18:35:30.018Z,100329.23
2019-02-07T18:37:56.878Z,100337.20
2019-02-07T18:40:24.518Z,100338.84
2019-02-07T18:42:51.373Z,100346.31
2019-02-07T18:45:18.398Z,100348.06
2019-02-07T18:47:45.249Z,100351.82
2019-02-07T18:50:15.598Z,100358.16
2019-02-07T18:52:42.538Z,100358.01
2019-02-07T18:55:09.370Z,100361.23
2019-02-07T18:57:36.276Z,100375.61
2019-02-07T19:00:04.776Z,100378.36
2019-02-07T19:02:31.634Z,100376.50
2019-02-07T19:04:58.746Z,100387.61
2019-02-07T19:07:25.618Z,100385.86
2019-02-07T19:09:52.712Z,100394.77
2019-02-07T19:12:19.646Z,100396.60
2019-02-07T19:14:46.483Z,100391.81
2019-02-07T19:17:13.338Z,100394.54
2019-02-07T19:19:40.170Z,100394.59
2019-02-07T19:22:07.251Z,100394.28
2019-02-07T19:24:34.084Z,100399.25
2019-02-07T19:27:00.937Z,100396.16
2019-02-07T19:29:27.770Z,100385.88
2019-02-07T19:31:54.661Z,100392.31
2019-02-07T19:34:21.497Z,100387.84
2019-02-07T19:36:48.353Z,100392.66
2019-02-07T19:39:15.182Z,100391.94
2019-02-07T19:41:42.041Z,100394.95
2019-02-07T19:44:08.963Z,100396.39
2019-02-07T19:46:35.823Z,100394.75
2019-02-07T19:49:02.694Z,100397.83
2019-02-07T19:51:29.546Z,100399.09
2019-02-07T19:53:56.406Z,100400.67
2019-02-07T19:56:23.334Z,100407.62
2019-02-07T19:58:50.755Z,100399.48
2019-02-07T20:01:17.719Z,100405.33
2019-02-07T20:03:44.570Z,100400.92
2019-02-07T20:06:11.479Z,100400.88
2019-02-07T20:08:38.346Z,100402.75
2019-02-07T20:11:05.310Z,100404.56
2019-02-07T20:13:32.198Z,100408.00
2019-02-07T20:15:59.046Z,100410.91
2019-02-07T20:18:26.035Z,100414.36
2019-02-07T20:20:52.878Z,100421.36
2019-02-07T20:23:19.737Z,100421.20
2019-02-07T20:25:46.734Z,100419.05
2019-02-07T20:28:13.502Z,100417.52
2019-02-07T20:30:41.411Z,100421.91
2019-02-07T20:33:08.974Z,100425.41
2019-02-07T20:35:35.830Z,100427.30
2019-02-07T20:38:02.713Z,100420.45
2019-02-07T20:40:29.582Z,100421.84
2019-02-07T20:42:56.450Z,100426.33
2019-02-07T20:45:23.298Z,100427.04
2019-02-07T20:47:50.166Z,100423.61
2019-02-07T20:50:19.238Z,100428.40
2019-02-07T20:52:46.422Z,100427.88
2019-02-07T20:55:13.265Z,100435.75
2019-02-07T20:57:40.130Z,100440.63
2019-02-07T21:00:12.192Z,100438.27
2019-02-07T21:02:39.046Z,100434.08
2019-02-07T21:05:06.674Z,100443.43
2019-02-07T21:07:33.523Z,100446.91
2019-02-07T21:10:00.389Z,100438.43
2019-02-07T21:12:27.227Z,100442.64
2019-02-07T21:14:54.068Z,100442.44
2019-02-07T21:17:20.922Z,100445.58
2019-02-07T21:19:47.763Z,100442.02
2019-02-07T21:22:14.622Z,100443.67
2019-02-07T21:24:41.457Z,100448.84
2019-02-07T21:27:08.326Z,100452.48
2019-02-07T21:29:35.166Z,100456.95
2019-02-07T21:32:02.086Z,100460.42
2019-02-07T21:34:28.942Z,100460.78
2019-02-07T21:36:55.766Z,100465.77
2019-02-07T21:39:22.650Z,100472.30
2019-02-07T21:41:49.499Z,100472.13
2019-02-07T21:44:16.354Z,100466.12
2019-02-07T21:46:43.183Z,100472.66
2019-02-07T21:49:10.034Z,100479.02
2019-02-07T21:51:36.865Z,100479.27
2019-02-07T21:54:03.766Z,100485.23
2019-02-07T21:56:30.701Z,100488.91
2019-02-07T21:58:57.566Z,100492.21
2019-02-07T22:01:24.398Z,100499.48
2019-02-07T22:03:51.274Z,100495.41
2019-02-07T22:06:18.112Z,100499.47
2019-02-07T22:08:44.957Z,100502.50
2019-02-07T22:11:11.781Z,100514.70
2019-02-07T22:13:38.658Z,100510.75
2019-02-07T22:16:05.503Z,100519.22
2019-02-07T22:18:32.356Z,100528.22
2019-02-07T22:20:59.185Z,100539.59
2019-02-07T22:23:26.033Z,100539.59
2019-02-07T22:25:52.870Z,100539.77
2019-02-07T22:28:19.742Z,100533.27
2019-02-07T22:30:46.570Z,100540.41
2019-02-07T22:33:13.415Z,100539.68
2019-02-07T22:35:40.246Z,100535.17
2019-02-07T22:38:07.329Z,100541.80
2019-02-07T22:40:34.158Z,100532.79
2019-02-07T22:43:01.199Z,100539.31
2019-02-07T22:45:28.051Z,100534.82
2019-02-07T22:47:54.982Z,100534.91
2019-02-07T22:50:23.301Z,100541.58
2019-02-07T22:52:56.839Z,100539.79
2019-02-07T22:55:17.289Z,100541.06
2019-02-07T22:57:44.150Z,100544.64
2019-02-07T23:00:38.830Z,100544.11
2019-02-07T23:03:05.679Z,100557.22
2019-02-07T23:05:32.518Z,100553.83
2019-02-07T23:07:59.351Z,100547.66
2019-02-07T23:10:26.200Z,100548.40
2019-02-07T23:12:53.017Z,100544.99
2019-02-07T23:15:19.873Z,100547.95
2019-02-07T23:17:46.708Z,100553.17
2019-02-07T23:20:13.614Z,100550.97
2019-02-07T23:22:40.449Z,100543.53
2019-02-07T23:25:07.311Z,100550.07
2019-02-07T23:27:34.170Z,100552.72
2019-02-07T23:30:01.234Z,100543.80
2019-02-07T23:32:28.073Z,100549.41
2019-02-07T23:34:54.925Z,100546.56
2019-02-07T23:37:21.765Z,100544.74
2019-02-07T23:39:48.613Z,100544.19
2019-02-07T23:42:15.455Z,100537.39
2019-02-07T23:44:42.307Z,100537.48
2019-02-07T23:47:09.138Z,100543.44
2019-02-07T23:49:36.042Z,100541.23
2019-02-07T23:52:02.871Z,100543.28
2019-02-07T23:54:29.727Z,100543.90
2019-02-07T23:56:56.565Z,100549.69
2019-02-07T23:59:23.417Z,100543.27
